Accueil
METAR-TAF:

METAR-TAF

Aéroports :

Cambridge, Angleterre

Aéroport international de Cambridge

latitude: 52-12N, longitude: 000-11E, altitude: 15 m

Observation

Le bulletin a été fait il y a 7 heures et 12 minutes, à 16:50 UTC
Vent 4 kt de nord/nord-est
Température 22°C
Humidité 60%
Pression 1016 hPa
Visibilité 10 km ou plus
Quelques nuages à une hauteur de 4000 ft

METAR: EGSC 281650Z 03004KT 9999 FEW040 22/14 Q1016

Heure: 01:02 (00:02 UTC)

Prévision

Le bulletin a été fait il y a 9 heures et 58 minutes, à 14:04 UTC
Prévision valable du 28 à 15 UTC au 28 à 19 UTC
Vent 5 kt de ouest/sud-ouest
Visibilité 10 km ou plus
Quelques nuages à une hauteur de 4500 ft
Probabilité 30% :
Temporairement
du 28 à 17 UTC au 28 à 19 UTC
Visibilité: 7000 m
averses de pluie

TAF: EGSC 281404Z 2815/2819 24005KT 9999 FEW045 PROB30 TEMPO 2817/2819 7000 SHRA

Observations et prévisions météorologiques de plus de 4000 aéroports (messages METAR et TAF).

Les stations disponibles sont représentées par des disques jaunes et rouges sur la carte.

Passer la souris dessus pour voir le nom de la station.

Cliquer dessus pour voir les observations et prévisions météorologiques.

Pour changer de carte: cliquez sur les boutons verts avec une croix noire pour zoomer, sur le bouton vert avec un tiret pour effectuer un zoom arrière, ou sur les flèches vertes pour les cartes adjacentes.


METAR-TAF: